sensor_id;sensor_type;location;lat;lon;timestamp;pressure;altitude;pressure_sealevel;temperature;humidity
16120;BME280;12670;53.502;10.252;2023-06-04T00:00:08;101906.97;;;12.68;nan
16120;BME280;12670;53.502;10.252;2023-06-04T00:03:11;101907.91;;;12.67;nan
16120;BME280;12670;53.502;10.252;2023-06-04T00:06:14;101906.00;;;12.70;nan
16120;BME280;12670;53.502;10.252;2023-06-04T00:09:16;101906.09;;;12.39;nan
16120;BME280;12670;53.502;10.252;2023-06-04T00:12:20;101897.38;;;12.34;nan
16120;BME280;12670;53.502;10.252;2023-06-04T00:15:23;101899.06;;;12.07;nan
16120;BME280;12670;53.502;10.252;2023-06-04T00:18:26;101895.13;;;12.20;nan
16120;BME280;12670;53.502;10.252;2023-06-04T00:21:29;101899.53;;;12.21;nan
16120;BME280;12670;53.502;10.252;2023-06-04T00:24:31;101903.31;;;12.14;nan
16120;BME280;12670;53.502;10.252;2023-06-04T00:27:36;101899.78;;;12.14;nan
16120;BME280;12670;53.502;10.252;2023-06-04T00:30:39;101882.16;;;11.77;nan
16120;BME280;12670;53.502;10.252;2023-06-04T00:33:41;101895.34;;;12.13;nan
16120;BME280;12670;53.502;10.252;2023-06-04T00:36:44;101887.47;;;11.79;nan
16120;BME280;12670;53.502;10.252;2023-06-04T00:39:47;101885.69;;;11.79;nan
16120;BME280;12670;53.502;10.252;2023-06-04T00:42:51;101883.34;;;11.99;nan
16120;BME280;12670;53.502;10.252;2023-06-04T00:45:54;101885.25;;;11.94;nan
16120;BME280;12670;53.502;10.252;2023-06-04T00:48:56;101887.34;;;11.83;nan
16120;BME280;12670;53.502;10.252;2023-06-04T00:51:59;101883.44;;;11.64;nan
16120;BME280;12670;53.502;10.252;2023-06-04T00:55:02;101892.53;;;11.88;nan
16120;BME280;12670;53.502;10.252;2023-06-04T00:58:07;101891.88;;;11.78;nan
16120;BME280;12670;53.502;10.252;2023-06-04T01:01:16;101893.84;;;11.40;nan
16120;BME280;12670;53.502;10.252;2023-06-04T01:04:27;101892.69;;;11.51;nan
16120;BME280;12670;53.502;10.252;2023-06-04T01:07:32;101887.53;;;11.44;nan
16120;BME280;12670;53.502;10.252;2023-06-04T01:10:34;101894.06;;;11.31;nan
16120;BME280;12670;53.502;10.252;2023-06-04T01:13:39;101890.28;;;11.72;nan
16120;BME280;12670;53.502;10.252;2023-06-04T01:16:46;101885.69;;;11.78;nan
16120;BME280;12670;53.502;10.252;2023-06-04T01:20:14;101885.34;;;11.59;nan
16120;BME280;12670;53.502;10.252;2023-06-04T01:23:26;101887.84;;;11.65;nan
16120;BME280;12670;53.502;10.252;2023-06-04T01:26:35;101885.34;;;11.59;nan
16120;BME280;12670;53.502;10.252;2023-06-04T01:29:40;101881.38;;;11.42;nan
16120;BME280;12670;53.502;10.252;2023-06-04T01:32:44;101882.03;;;11.51;nan
16120;BME280;12670;53.502;10.252;2023-06-04T01:35:48;101881.91;;;11.23;nan
16120;BME280;12670;53.502;10.252;2023-06-04T01:38:51;101878.38;;;11.22;nan
16120;BME280;12670;53.502;10.252;2023-06-04T01:41:54;101875.63;;;11.25;nan
16120;BME280;12670;53.502;10.252;2023-06-04T01:44:58;101879.53;;;11.12;nan
16120;BME280;12670;53.502;10.252;2023-06-04T01:48:01;101883.41;;;10.99;nan
16120;BME280;12670;53.502;10.252;2023-06-04T01:51:04;101881.53;;;11.04;nan
16120;BME280;12670;53.502;10.252;2023-06-04T01:54:08;101880.31;;;10.81;nan
16120;BME280;12670;53.502;10.252;2023-06-04T01:57:10;101886.56;;;11.13;nan
16120;BME280;12670;53.502;10.252;2023-06-04T02:00:14;101879.94;;;10.97;nan
16120;BME280;12670;53.502;10.252;2023-06-04T02:03:17;101874.19;;;10.79;nan
16120;BME280;12670;53.502;10.252;2023-06-04T02:06:20;101873.22;;;10.82;nan
16120;BME280;12670;53.502;10.252;2023-06-04T02:09:23;101873.31;;;10.77;nan
16120;BME280;12670;53.502;10.252;2023-06-04T02:12:25;101878.25;;;10.55;nan
16120;BME280;12670;53.502;10.252;2023-06-04T02:15:31;101878.53;;;10.82;nan
16120;BME280;12670;53.502;10.252;2023-06-04T02:18:33;101883.25;;;10.69;nan
16120;BME280;12670;53.502;10.252;2023-06-04T02:21:36;101879.69;;;10.70;nan
16120;BME280;12670;53.502;10.252;2023-06-04T02:24:39;101881.03;;;10.88;nan
16120;BME280;12670;53.502;10.252;2023-06-04T02:27:43;101884.53;;;10.53;nan
16120;BME280;12670;53.502;10.252;2023-06-04T02:30:47;101874.84;;;10.87;nan
16120;BME280;12670;53.502;10.252;2023-06-04T02:33:50;101875.66;;;10.54;nan
16120;BME280;12670;53.502;10.252;2023-06-04T02:36:53;101878.34;;;10.12;nan
16120;BME280;12670;53.502;10.252;2023-06-04T02:39:55;101878.16;;;10.21;nan
16120;BME280;12670;53.502;10.252;2023-06-04T02:42:58;101869.19;;;10.28;nan
16120;BME280;12670;53.502;10.252;2023-06-04T02:46:02;101877.28;;;10.59;nan
16120;BME280;12670;53.502;10.252;2023-06-04T02:49:05;101878.31;;;10.54;nan
16120;BME280;12670;53.502;10.252;2023-06-04T02:52:08;101876.50;;;10.14;nan
16120;BME280;12670;53.502;10.252;2023-06-04T02:55:10;101879.28;;;10.09;nan
16120;BME280;12670;53.502;10.252;2023-06-04T02:58:14;101882.59;;;10.19;nan
16120;BME280;12670;53.502;10.252;2023-06-04T03:01:19;101883.75;;;10.48;nan
16120;BME280;12670;53.502;10.252;2023-06-04T03:04:22;101875.91;;;10.43;nan
16120;BME280;12670;53.502;10.252;2023-06-04T03:07:25;101881.75;;;10.17;nan
16120;BME280;12670;53.502;10.252;2023-06-04T03:10:28;101878.72;;;10.35;nan
16120;BME280;12670;53.502;10.252;2023-06-04T03:13:31;101877.41;;;10.14;nan
16120;BME280;12670;53.502;10.252;2023-06-04T03:16:35;101877.97;;;9.88;nan
16120;BME280;12670;53.502;10.252;2023-06-04T03:19:41;101875.13;;;9.98;nan
16120;BME280;12670;53.502;10.252;2023-06-04T03:22:44;101873.69;;;9.81;nan
16120;BME280;12670;53.502;10.252;2023-06-04T03:25:47;101878.28;;;10.15;nan
16120;BME280;12670;53.502;10.252;2023-06-04T03:28:50;101875.91;;;10.43;nan
16120;BME280;12670;53.502;10.252;2023-06-04T03:31:55;101874.84;;;10.10;nan
16120;BME280;12670;53.502;10.252;2023-06-04T03:34:57;101875.81;;;10.06;nan
16120;BME280;12670;53.502;10.252;2023-06-04T03:38:00;101872.31;;;10.46;nan
16120;BME280;12670;53.502;10.252;2023-06-04T03:41:03;101868.81;;;10.02;nan
16120;BME280;12670;53.502;10.252;2023-06-04T03:44:06;101876.03;;;9.97;nan
16120;BME280;12670;53.502;10.252;2023-06-04T03:47:10;101881.34;;;9.95;nan
16120;BME280;12670;53.502;10.252;2023-06-04T03:50:13;101870.91;;;9.87;nan
16120;BME280;12670;53.502;10.252;2023-06-04T03:53:15;101874.16;;;10.00;nan
16120;BME280;12670;53.502;10.252;2023-06-04T03:56:18;101861.28;;;9.83;nan
16120;BME280;12670;53.502;10.252;2023-06-04T03:59:21;101865.31;;;10.01;nan
16120;BME280;12670;53.502;10.252;2023-06-04T04:02:25;101875.03;;;10.01;nan
16120;BME280;12670;53.502;10.252;2023-06-04T04:05:28;101869.09;;;10.31;nan
16120;BME280;12670;53.502;10.252;2023-06-04T04:08:30;101865.81;;;10.20;nan
16120;BME280;12670;53.502;10.252;2023-06-04T04:11:33;101876.41;;;10.20;nan
16120;BME280;12670;53.502;10.252;2023-06-04T04:14:36;101879.25;;;10.51;nan
16120;BME280;12670;53.502;10.252;2023-06-04T04:17:40;101876.34;;;10.23;nan
16120;BME280;12670;53.502;10.252;2023-06-04T04:20:44;101881.72;;;10.19;nan
16120;BME280;12670;53.502;10.252;2023-06-04T04:23:48;101878.56;;;10.43;nan
16120;BME280;12670;53.502;10.252;2023-06-04T04:26:51;101876.88;;;10.76;nan
16120;BME280;12670;53.502;10.252;2023-06-04T04:29:55;101868.25;;;11.02;nan
16120;BME280;12670;53.502;10.252;2023-06-04T04:33:02;101872.84;;;10.95;nan
16120;BME280;12670;53.502;10.252;2023-06-04T04:36:06;101872.69;;;11.03;nan
16120;BME280;12670;53.502;10.252;2023-06-04T04:39:14;101870.56;;;11.16;nan
16120;BME280;12670;53.502;10.252;2023-06-04T04:42:16;101876.00;;;11.11;nan
16120;BME280;12670;53.502;10.252;2023-06-04T04:45:19;101879.31;;;11.19;nan
16120;BME280;12670;53.502;10.252;2023-06-04T04:48:24;101873.81;;;11.27;nan
16120;BME280;12670;53.502;10.252;2023-06-04T04:51:27;101878.69;;;11.44;nan
16120;BME280;12670;53.502;10.252;2023-06-04T04:54:29;101880.91;;;11.59;nan
16120;BME280;12670;53.502;10.252;2023-06-04T04:57:32;101878.94;;;11.66;nan
16120;BME280;12670;53.502;10.252;2023-06-04T05:00:35;101878.13;;;11.64;nan
16120;BME280;12670;53.502;10.252;2023-06-04T05:03:39;101883.03;;;11.79;nan
16120;BME280;12670;53.502;10.252;2023-06-04T05:06:42;101883.50;;;11.93;nan
16120;BME280;12670;53.502;10.252;2023-06-04T05:09:44;101889.41;;;12.05;nan
16120;BME280;12670;53.502;10.252;2023-06-04T05:12:51;101892.59;;;12.16;nan
16120;BME280;12670;53.502;10.252;2023-06-04T05:15:54;101888.94;;;12.20;nan
16120;BME280;12670;53.502;10.252;2023-06-04T05:18:59;101893.09;;;12.28;nan
16120;BME280;12670;53.502;10.252;2023-06-04T05:22:02;101891.13;;;12.35;nan
16120;BME280;12670;53.502;10.252;2023-06-04T05:25:05;101895.31;;;12.44;nan
16120;BME280;12670;53.502;10.252;2023-06-04T05:28:09;101891.28;;;12.59;nan
16120;BME280;12670;53.502;10.252;2023-06-04T05:31:14;101905.03;;;12.73;nan
16120;BME280;12670;53.502;10.252;2023-06-04T05:34:18;101902.13;;;12.80;nan
16120;BME280;12670;53.502;10.252;2023-06-04T05:37:22;101902.50;;;12.96;nan
16120;BME280;12670;53.502;10.252;2023-06-04T05:40:25;101904.09;;;13.02;nan
16120;BME280;12670;53.502;10.252;2023-06-04T05:43:28;101902.16;;;13.05;nan
16120;BME280;12670;53.502;10.252;2023-06-04T05:46:31;101890.91;;;13.24;nan
16120;BME280;12670;53.502;10.252;2023-06-04T05:49:35;101896.31;;;13.47;nan
16120;BME280;12670;53.502;10.252;2023-06-04T05:52:38;101897.44;;;13.65;nan
16120;BME280;12670;53.502;10.252;2023-06-04T05:55:41;101899.22;;;13.66;nan
16120;BME280;12670;53.502;10.252;2023-06-04T05:58:45;101901.00;;;13.89;nan
16120;BME280;12670;53.502;10.252;2023-06-04T06:01:53;101898.25;;;13.92;nan
16120;BME280;12670;53.502;10.252;2023-06-04T06:04:57;101895.63;;;13.67;nan
16120;BME280;12670;53.502;10.252;2023-06-04T06:08:00;101890.34;;;13.89;nan
16120;BME280;12670;53.502;10.252;2023-06-04T06:11:03;101902.06;;;14.32;nan
16120;BME280;12670;53.502;10.252;2023-06-04T06:14:09;101909.25;;;14.30;nan
16120;BME280;12670;53.502;10.252;2023-06-04T06:17:12;101906.72;;;14.27;nan
16120;BME280;12670;53.502;10.252;2023-06-04T06:20:17;101912.34;;;14.64;nan
16120;BME280;12670;53.502;10.252;2023-06-04T06:23:20;101917.34;;;14.74;nan
16120;BME280;12670;53.502;10.252;2023-06-04T06:26:24;101914.09;;;15.09;nan
16120;BME280;12670;53.502;10.252;2023-06-04T06:29:27;101910.09;;;15.19;nan
16120;BME280;12670;53.502;10.252;2023-06-04T06:32:30;101909.94;;;15.23;nan
16120;BME280;12670;53.502;10.252;2023-06-04T06:35:37;101908.09;;;15.25;nan
16120;BME280;12670;53.502;10.252;2023-06-04T06:38:41;101909.91;;;15.44;nan
16120;BME280;12670;53.502;10.252;2023-06-04T06:41:45;101917.09;;;15.64;nan
16120;BME280;12670;53.502;10.252;2023-06-04T06:44:47;101913.63;;;15.62;nan
16120;BME280;12670;53.502;10.252;2023-06-04T06:47:50;101913.97;;;15.53;nan
16120;BME280;12670;53.502;10.252;2023-06-04T06:50:55;101908.00;;;15.68;nan
16120;BME280;12670;53.502;10.252;2023-06-04T06:53:57;101909.59;;;15.72;nan
16120;BME280;12670;53.502;10.252;2023-06-04T06:57:00;101913.69;;;16.00;nan
16120;BME280;12670;53.502;10.252;2023-06-04T07:00:05;101914.31;;;16.07;nan
16120;BME280;12670;53.502;10.252;2023-06-04T07:03:08;101915.16;;;16.07;nan
16120;BME280;12670;53.502;10.252;2023-06-04T07:06:12;101926.75;;;16.26;nan
16120;BME280;12670;53.502;10.252;2023-06-04T07:09:15;101920.81;;;16.39;nan
16120;BME280;12670;53.502;10.252;2023-06-04T07:12:18;101925.84;;;16.64;nan
16120;BME280;12670;53.502;10.252;2023-06-04T07:15:21;101931.53;;;16.76;nan
16120;BME280;12670;53.502;10.252;2023-06-04T07:18:24;101931.72;;;16.91;nan
16120;BME280;12670;53.502;10.252;2023-06-04T07:21:28;101929.00;;;17.10;nan
16120;BME280;12670;53.502;10.252;2023-06-04T07:24:30;101929.41;;;17.19;nan
16120;BME280;12670;53.502;10.252;2023-06-04T07:27:33;101932.56;;;17.27;nan
16120;BME280;12670;53.502;10.252;2023-06-04T07:30:37;101923.75;;;17.43;nan
16120;BME280;12670;53.502;10.252;2023-06-04T07:33:40;101922.78;;;17.61;nan
16120;BME280;12670;53.502;10.252;2023-06-04T07:36:47;101918.03;;;17.66;nan
16120;BME280;12670;53.502;10.252;2023-06-04T07:39:49;101922.06;;;17.75;nan
16120;BME280;12670;53.502;10.252;2023-06-04T07:42:52;101918.28;;;17.79;nan
16120;BME280;12670;53.502;10.252;2023-06-04T07:45:55;101915.75;;;18.09;nan
16120;BME280;12670;53.502;10.252;2023-06-04T07:48:58;101923.50;;;18.31;nan
16120;BME280;12670;53.502;10.252;2023-06-04T07:52:02;101919.88;;;18.48;nan
16120;BME280;12670;53.502;10.252;2023-06-04T07:55:05;101924.81;;;18.55;nan
16120;BME280;12670;53.502;10.252;2023-06-04T07:58:09;101921.41;;;18.52;nan
16120;BME280;12670;53.502;10.252;2023-06-04T08:01:12;101919.53;;;18.70;nan
16120;BME280;12670;53.502;10.252;2023-06-04T08:04:15;101924.50;;;18.77;nan
16120;BME280;12670;53.502;10.252;2023-06-04T08:07:19;101919.78;;;18.97;nan
16120;BME280;12670;53.502;10.252;2023-06-04T08:10:22;101921.34;;;19.01;nan
16120;BME280;12670;53.502;10.252;2023-06-04T08:13:24;101917.59;;;19.03;nan
16120;BME280;12670;53.502;10.252;2023-06-04T08:16:27;101925.13;;;19.42;nan
16120;BME280;12670;53.502;10.252;2023-06-04T08:19:30;101918.78;;;19.74;nan
16120;BME280;12670;53.502;10.252;2023-06-04T08:22:34;101918.22;;;19.83;nan
16120;BME280;12670;53.502;10.252;2023-06-04T08:25:37;101917.34;;;19.82;nan
16120;BME280;12670;53.502;10.252;2023-06-04T08:28:39;101920.25;;;19.93;nan
16120;BME280;12670;53.502;10.252;2023-06-04T08:31:42;101917.94;;;20.02;nan
16120;BME280;12670;53.502;10.252;2023-06-04T08:34:45;101928.69;;;20.16;nan
16120;BME280;12670;53.502;10.252;2023-06-04T08:37:49;101925.06;;;20.17;nan
16120;BME280;12670;53.502;10.252;2023-06-04T08:40:53;101926.56;;;20.35;nan
16120;BME280;12670;53.502;10.252;2023-06-04T08:43:59;101923.31;;;20.16;nan
16120;BME280;12670;53.502;10.252;2023-06-04T08:47:05;101931.41;;;20.30;nan
16120;BME280;12670;53.502;10.252;2023-06-04T08:50:09;101925.53;;;20.52;nan
16120;BME280;12670;53.502;10.252;2023-06-04T08:53:15;101918.31;;;20.80;nan
16120;BME280;12670;53.502;10.252;2023-06-04T08:56:19;101914.09;;;21.15;nan
16120;BME280;12670;53.502;10.252;2023-06-04T08:59:22;101914.22;;;21.41;nan
16120;BME280;12670;53.502;10.252;2023-06-04T09:02:27;101926.75;;;21.54;nan
16120;BME280;12670;53.502;10.252;2023-06-04T09:05:30;101920.38;;;21.43;nan
16120;BME280;12670;53.502;10.252;2023-06-04T09:08:38;101934.09;;;21.52;nan
16120;BME280;12670;53.502;10.252;2023-06-04T09:11:46;101933.31;;;21.50;nan
16120;BME280;12670;53.502;10.252;2023-06-04T09:14:51;101927.19;;;21.87;nan
16120;BME280;12670;53.502;10.252;2023-06-04T09:17:54;101928.72;;;21.65;nan
16120;BME280;12670;53.502;10.252;2023-06-04T09:21:01;101934.72;;;21.43;nan
16120;BME280;12670;53.502;10.252;2023-06-04T09:24:05;101931.09;;;21.95;nan
16120;BME280;12670;53.502;10.252;2023-06-04T09:27:12;101935.34;;;22.12;nan
16120;BME280;12670;53.502;10.252;2023-06-04T09:30:15;101937.75;;;22.53;nan
16120;BME280;12670;53.502;10.252;2023-06-04T09:33:18;101931.63;;;22.62;nan
16120;BME280;12670;53.502;10.252;2023-06-04T09:36:22;101944.44;;;22.84;nan
16120;BME280;12670;53.502;10.252;2023-06-04T09:39:26;101941.88;;;22.46;nan
16120;BME280;12670;53.502;10.252;2023-06-04T09:42:29;101933.25;;;22.16;nan
16120;BME280;12670;53.502;10.252;2023-06-04T09:45:33;101941.72;;;22.60;nan
16120;BME280;12670;53.502;10.252;2023-06-04T09:48:37;101942.22;;;23.02;nan
16120;BME280;12670;53.502;10.252;2023-06-04T09:51:46;101938.28;;;22.82;nan
16120;BME280;12670;53.502;10.252;2023-06-04T09:54:51;101941.25;;;23.03;nan
16120;BME280;12670;53.502;10.252;2023-06-04T09:57:54;101928.47;;;23.05;nan
16120;BME280;12670;53.502;10.252;2023-06-04T10:00:57;101933.44;;;23.47;nan
16120;BME280;12670;53.502;10.252;2023-06-04T10:04:03;101919.56;;;23.62;nan
16120;BME280;12670;53.502;10.252;2023-06-04T10:07:08;101932.19;;;23.75;nan
16120;BME280;12670;53.502;10.252;2023-06-04T10:10:15;101925.00;;;23.74;nan
16120;BME280;12670;53.502;10.252;2023-06-04T10:13:19;101921.09;;;23.89;nan
16120;BME280;12670;53.502;10.252;2023-06-04T10:16:23;101922.97;;;24.11;nan
16120;BME280;12670;53.502;10.252;2023-06-04T10:19:35;101924.81;;;23.88;nan
16120;BME280;12670;53.502;10.252;2023-06-04T10:22:40;101921.13;;;24.11;nan
16120;BME280;12670;53.502;10.252;2023-06-04T10:25:48;101923.09;;;24.43;nan
16120;BME280;12670;53.502;10.252;2023-06-04T10:28:52;101917.59;;;24.77;nan
16120;BME280;12670;53.502;10.252;2023-06-04T10:31:55;101920.09;;;25.12;nan
16120;BME280;12670;53.502;10.252;2023-06-04T10:34:58;101910.88;;;24.49;nan
16120;BME280;12670;53.502;10.252;2023-06-04T10:38:09;101920.84;;;25.03;nan
16120;BME280;12670;53.502;10.252;2023-06-04T10:41:15;101918.84;;;25.16;nan
16120;BME280;12670;53.502;10.252;2023-06-04T10:44:18;101930.16;;;25.21;nan
16120;BME280;12670;53.502;10.252;2023-06-04T10:47:22;101924.56;;;25.55;nan
16120;BME280;12670;53.502;10.252;2023-06-04T10:50:25;101920.19;;;25.42;nan
16120;BME280;12670;53.502;10.252;2023-06-04T10:53:36;101912.63;;;25.67;nan
16120;BME280;12670;53.502;10.252;2023-06-04T10:56:40;101924.44;;;25.98;nan
16120;BME280;12670;53.502;10.252;2023-06-04T10:59:53;101937.44;;;25.73;nan
16120;BME280;12670;53.502;10.252;2023-06-04T11:02:56;101938.19;;;26.37;nan
16120;BME280;12670;53.502;10.252;2023-06-04T11:05:59;101932.16;;;26.02;nan
16120;BME280;12670;53.502;10.252;2023-06-04T11:09:02;101923.81;;;26.15;nan
16120;BME280;12670;53.502;10.252;2023-06-04T11:12:08;101916.91;;;25.81;nan
16120;BME280;12670;53.502;10.252;2023-06-04T11:15:11;101917.63;;;26.13;nan
16120;BME280;12670;53.502;10.252;2023-06-04T11:18:14;101919.25;;;25.95;nan
16120;BME280;12670;53.502;10.252;2023-06-04T11:21:17;101916.03;;;26.11;nan
16120;BME280;12670;53.502;10.252;2023-06-04T11:24:20;101919.44;;;26.34;nan
16120;BME280;12670;53.502;10.252;2023-06-04T11:27:25;101913.63;;;26.17;nan
16120;BME280;12670;53.502;10.252;2023-06-04T11:30:36;101918.13;;;26.68;nan
16120;BME280;12670;53.502;10.252;2023-06-04T11:33:43;101914.69;;;26.36;nan
16120;BME280;12670;53.502;10.252;2023-06-04T11:36:46;101912.38;;;26.71;nan
16120;BME280;12670;53.502;10.252;2023-06-04T11:39:51;101902.38;;;27.01;nan
16120;BME280;12670;53.502;10.252;2023-06-04T11:42:55;101903.63;;;26.58;nan
16120;BME280;12670;53.502;10.252;2023-06-04T11:45:58;101900.94;;;27.26;nan
16120;BME280;12670;53.502;10.252;2023-06-04T11:49:02;101902.81;;;27.45;nan
16120;BME280;12670;53.502;10.252;2023-06-04T11:52:07;101897.88;;;26.21;nan
16120;BME280;12670;53.502;10.252;2023-06-04T11:55:10;101900.00;;;26.48;nan
16120;BME280;12670;53.502;10.252;2023-06-04T11:58:15;101910.38;;;27.02;nan
16120;BME280;12670;53.502;10.252;2023-06-04T12:01:18;101911.25;;;27.03;nan
16120;BME280;12670;53.502;10.252;2023-06-04T12:04:22;101905.28;;;27.09;nan
16120;BME280;12670;53.502;10.252;2023-06-04T12:07:24;101909.25;;;26.95;nan
16120;BME280;12670;53.502;10.252;2023-06-04T12:10:28;101901.25;;;27.32;nan
16120;BME280;12670;53.502;10.252;2023-06-04T12:13:36;101899.63;;;27.59;nan
16120;BME280;12670;53.502;10.252;2023-06-04T12:16:39;101899.19;;;27.54;nan
16120;BME280;12670;53.502;10.252;2023-06-04T12:19:46;101896.69;;;27.89;nan
16120;BME280;12670;53.502;10.252;2023-06-04T12:22:49;101911.69;;;27.56;nan
16120;BME280;12670;53.502;10.252;2023-06-04T12:25:53;101898.31;;;27.63;nan
16120;BME280;12670;53.502;10.252;2023-06-04T12:29:01;101896.50;;;27.34;nan
16120;BME280;12670;53.502;10.252;2023-06-04T12:32:07;101892.06;;;27.14;nan
16120;BME280;12670;53.502;10.252;2023-06-04T12:35:13;101888.91;;;26.80;nan
16120;BME280;12670;53.502;10.252;2023-06-04T12:38:17;101885.31;;;26.99;nan
16120;BME280;12670;53.502;10.252;2023-06-04T12:41:19;101876.72;;;27.03;nan
16120;BME280;12670;53.502;10.252;2023-06-04T12:44:24;101887.19;;;27.08;nan
16120;BME280;12670;53.502;10.252;2023-06-04T12:47:26;101875.66;;;27.62;nan
16120;BME280;12670;53.502;10.252;2023-06-04T12:50:29;101876.41;;;26.97;nan
16120;BME280;12670;53.502;10.252;2023-06-04T12:53:32;101871.91;;;27.73;nan
16120;BME280;12670;53.502;10.252;2023-06-04T12:56:35;101877.91;;;27.86;nan
16120;BME280;12670;53.502;10.252;2023-06-04T12:59:39;101877.66;;;27.80;nan
16120;BME280;12670;53.502;10.252;2023-06-04T13:02:42;101872.72;;;27.93;nan
16120;BME280;12670;53.502;10.252;2023-06-04T13:05:44;101877.13;;;27.37;nan
16120;BME280;12670;53.502;10.252;2023-06-04T13:08:47;101871.34;;;27.60;nan
16120;BME280;12670;53.502;10.252;2023-06-04T13:11:50;101883.59;;;28.03;nan
16120;BME280;12670;53.502;10.252;2023-06-04T13:14:55;101882.38;;;28.15;nan
16120;BME280;12670;53.502;10.252;2023-06-04T13:17:57;101865.63;;;27.53;nan
16120;BME280;12670;53.502;10.252;2023-06-04T13:21:01;101873.63;;;27.64;nan
16120;BME280;12670;53.502;10.252;2023-06-04T13:24:04;101872.25;;;27.41;nan
16120;BME280;12670;53.502;10.252;2023-06-04T13:27:06;101866.78;;;27.51;nan
16120;BME280;12670;53.502;10.252;2023-06-04T13:30:12;101858.53;;;27.14;nan
16120;BME280;12670;53.502;10.252;2023-06-04T13:33:15;101859.31;;;27.53;nan
16120;BME280;12670;53.502;10.252;2023-06-04T13:36:17;101858.19;;;27.46;nan
16120;BME280;12670;53.502;10.252;2023-06-04T13:39:20;101870.50;;;27.59;nan
16120;BME280;12670;53.502;10.252;2023-06-04T13:42:23;101869.75;;;27.77;nan
16120;BME280;12670;53.502;10.252;2023-06-04T13:45:28;101864.25;;;27.30;nan
16120;BME280;12670;53.502;10.252;2023-06-04T13:48:31;101865.56;;;27.82;nan
16120;BME280;12670;53.502;10.252;2023-06-04T13:51:34;101856.34;;;27.93;nan
16120;BME280;12670;53.502;10.252;2023-06-04T13:54:37;101857.28;;;28.02;nan
16120;BME280;12670;53.502;10.252;2023-06-04T13:57:40;101850.56;;;27.96;nan
16120;BME280;12670;53.502;10.252;2023-06-04T14:00:44;101854.63;;;27.92;nan
16120;BME280;12670;53.502;10.252;2023-06-04T14:03:47;101848.69;;;27.50;nan
16120;BME280;12670;53.502;10.252;2023-06-04T14:06:50;101854.16;;;27.69;nan
16120;BME280;12670;53.502;10.252;2023-06-04T14:09:53;101844.03;;;27.32;nan
16120;BME280;12670;53.502;10.252;2023-06-04T14:12:56;101846.56;;;27.44;nan
16120;BME280;12670;53.502;10.252;2023-06-04T14:16:00;101839.72;;;27.30;nan
16120;BME280;12670;53.502;10.252;2023-06-04T14:19:03;101841.91;;;27.17;nan
16120;BME280;12670;53.502;10.252;2023-06-04T14:22:06;101837.44;;;27.25;nan
16120;BME280;12670;53.502;10.252;2023-06-04T14:25:09;101831.00;;;26.78;nan
16120;BME280;12670;53.502;10.252;2023-06-04T14:28:12;101837.59;;;26.75;nan
16120;BME280;12670;53.502;10.252;2023-06-04T14:31:16;101832.69;;;26.79;nan
16120;BME280;12670;53.502;10.252;2023-06-04T14:34:19;101832.13;;;26.56;nan
16120;BME280;12670;53.502;10.252;2023-06-04T14:37:22;101831.44;;;26.14;nan
16120;BME280;12670;53.502;10.252;2023-06-04T14:40:24;101831.69;;;26.01;nan
16120;BME280;12670;53.502;10.252;2023-06-04T14:43:27;101826.50;;;25.67;nan
16120;BME280;12670;53.502;10.252;2023-06-04T14:46:31;101819.59;;;25.33;nan
16120;BME280;12670;53.502;10.252;2023-06-04T14:49:34;101827.09;;;25.40;nan
16120;BME280;12670;53.502;10.252;2023-06-04T14:52:37;101829.28;;;25.25;nan
16120;BME280;12670;53.502;10.252;2023-06-04T14:55:40;101828.75;;;24.79;nan
16120;BME280;12670;53.502;10.252;2023-06-04T14:58:43;101829.41;;;24.71;nan
16120;BME280;12670;53.502;10.252;2023-06-04T15:01:47;101825.09;;;24.25;nan
16120;BME280;12670;53.502;10.252;2023-06-04T15:04:50;101825.59;;;24.19;nan
16120;BME280;12670;53.502;10.252;2023-06-04T15:07:52;101824.75;;;24.07;nan
16120;BME280;12670;53.502;10.252;2023-06-04T15:10:55;101832.88;;;23.85;nan
16120;BME280;12670;53.502;10.252;2023-06-04T15:13:58;101823.03;;;24.06;nan
16120;BME280;12670;53.502;10.252;2023-06-04T15:17:02;101819.09;;;23.65;nan
16120;BME280;12670;53.502;10.252;2023-06-04T15:20:06;101818.13;;;23.78;nan
16120;BME280;12670;53.502;10.252;2023-06-04T15:23:09;101830.94;;;23.76;nan
16120;BME280;12670;53.502;10.252;2023-06-04T15:26:12;101818.38;;;23.75;nan
16120;BME280;12670;53.502;10.252;2023-06-04T15:29:15;101820.00;;;23.31;nan
16120;BME280;12670;53.502;10.252;2023-06-04T15:32:19;101815.59;;;23.30;nan
16120;BME280;12670;53.502;10.252;2023-06-04T15:35:22;101817.28;;;23.20;nan
16120;BME280;12670;53.502;10.252;2023-06-04T15:38:25;101816.56;;;23.29;nan
16120;BME280;12670;53.502;10.252;2023-06-04T15:41:28;101819.75;;;23.11;nan
16120;BME280;12670;53.502;10.252;2023-06-04T15:44:31;101820.34;;;23.15;nan
16120;BME280;12670;53.502;10.252;2023-06-04T15:47:35;101824.69;;;23.18;nan
16120;BME280;12670;53.502;10.252;2023-06-04T15:50:38;101811.50;;;23.13;nan
16120;BME280;12670;53.502;10.252;2023-06-04T15:53:40;101819.81;;;22.99;nan
16120;BME280;12670;53.502;10.252;2023-06-04T15:56:43;101809.00;;;22.99;nan
16120;BME280;12670;53.502;10.252;2023-06-04T15:59:46;101813.03;;;22.93;nan
16120;BME280;12670;53.502;10.252;2023-06-04T16:02:50;101813.53;;;22.87;nan
16120;BME280;12670;53.502;10.252;2023-06-04T16:05:53;101810.22;;;22.71;nan
16120;BME280;12670;53.502;10.252;2023-06-04T16:08:56;101805.59;;;22.84;nan
16120;BME280;12670;53.502;10.252;2023-06-04T16:11:59;101810.81;;;22.87;nan